Terminal Aerodrome Forecast
Issued by NWS

Home | Current Version | Previous Version | Text Only | Print | Product List | Glossary On
Versions: 1 2 3 4 5 6 7 8 9 10 11 12 13
000
FTUS44 KSJT 282300
TAFBBD
TAF
KBBD 282324Z 2900/2924 18007KT P6SM SKC
     FM291200 18005KT P6SM BKN015
     FM291600 20012KT P6SM FEW050=

USA.gov is the U.S. government's official web portal to all federal, state and local government web resources and services.